createdAt,value
2023-01-04T00:02:15.524Z,21.10
2023-01-04T00:04:46.343Z,21.10
2023-01-04T00:07:17.008Z,21.10
2023-01-04T00:09:47.741Z,21.10
2023-01-04T00:12:22.112Z,21.20
2023-01-04T00:14:52.838Z,21.20
2023-01-04T00:17:23.625Z,21.20
2023-01-04T00:19:54.328Z,21.20
2023-01-04T00:22:25.265Z,21.30
2023-01-04T00:24:56.062Z,21.30
2023-01-04T00:27:26.927Z,21.30
2023-01-04T00:29:57.777Z,21.30
2023-01-04T00:32:28.756Z,21.30
2023-01-04T00:34:59.478Z,21.40
2023-01-04T00:37:30.170Z,21.40
2023-01-04T00:40:00.903Z,21.40
2023-01-04T00:42:31.692Z,21.40
2023-01-04T00:45:03.402Z,21.40
2023-01-04T00:47:35.753Z,21.50
2023-01-04T00:50:08.227Z,21.50
2023-01-04T00:52:40.262Z,21.50
2023-01-04T00:55:12.933Z,21.50
2023-01-04T00:57:45.435Z,21.50
2023-01-04T01:00:18.633Z,21.60
2023-01-04T01:02:51.709Z,21.60
2023-01-04T01:05:29.637Z,21.60
2023-01-04T01:08:03.547Z,21.70
2023-01-04T01:10:37.256Z,21.70
2023-01-04T01:13:09.105Z,21.80
2023-01-04T01:15:40.999Z,21.80
2023-01-04T01:18:11.827Z,21.90
2023-01-04T01:20:47.070Z,22.00
2023-01-04T01:23:18.803Z,22.00
2023-01-04T01:25:49.529Z,22.10
2023-01-04T01:28:20.291Z,22.10
2023-01-04T01:30:51.077Z,22.20
2023-01-04T01:33:22.055Z,22.20
2023-01-04T01:35:52.746Z,22.20
2023-01-04T01:38:23.470Z,22.30
2023-01-04T01:40:54.151Z,22.30
2023-01-04T01:43:28.013Z,22.30
2023-01-04T01:46:06.593Z,22.30
2023-01-04T01:48:33.163Z,22.40
2023-01-04T01:51:05.847Z,22.40
2023-01-04T01:53:39.199Z,22.40
2023-01-04T01:56:11.725Z,22.50
2023-01-04T01:58:44.984Z,22.50
2023-01-04T02:01:16.259Z,22.60
2023-01-04T02:03:47.423Z,22.60
2023-01-04T02:06:23.440Z,22.60
2023-01-04T02:08:54.862Z,22.70
2023-01-04T02:11:25.703Z,22.70
2023-01-04T02:14:15.383Z,22.70
2023-01-04T02:17:00.217Z,22.80
2023-01-04T02:20:06.742Z,22.80
2023-01-04T02:22:59.740Z,22.80
2023-01-04T02:26:06.054Z,22.90
2023-01-04T02:28:36.893Z,23.00
2023-01-04T02:31:26.442Z,23.00
2023-01-04T02:34:02.739Z,23.10
2023-01-04T02:37:01.765Z,23.10
2023-01-04T02:39:57.589Z,23.10
2023-01-04T02:43:00.646Z,23.10
2023-01-04T02:45:33.854Z,23.20
2023-01-04T02:48:29.343Z,23.20
2023-01-04T02:51:02.767Z,23.20
2023-01-04T02:53:36.020Z,23.20
2023-01-04T02:56:39.596Z,23.30
2023-01-04T02:59:18.924Z,23.40
2023-01-04T03:02:26.594Z,23.40
2023-01-04T03:05:19.981Z,23.50
2023-01-04T03:07:58.767Z,23.60
2023-01-04T03:10:37.578Z,23.70
2023-01-04T03:13:13.903Z,23.70
2023-01-04T03:15:50.522Z,23.80
2023-01-04T03:18:26.813Z,23.90
2023-01-04T03:21:00.698Z,24.00
2023-01-04T03:23:51.353Z,24.10
2023-01-04T03:26:42.493Z,24.20
2023-01-04T03:29:38.792Z,24.30
2023-01-04T03:32:30.161Z,24.40
2023-01-04T03:35:19.372Z,24.50
2023-01-04T03:38:13.429Z,24.60
2023-01-04T03:41:04.821Z,24.70
2023-01-04T03:44:11.591Z,24.80
2023-01-04T03:47:09.133Z,24.80
2023-01-04T03:49:51.568Z,24.90
2023-01-04T03:52:23.264Z,25.00
2023-01-04T03:54:55.503Z,25.00
2023-01-04T03:57:40.392Z,25.10
2023-01-04T04:00:19.916Z,25.30
2023-01-04T04:02:54.925Z,25.30
2023-01-04T04:08:50.520Z,25.40
2023-01-04T04:11:34.191Z,25.60
2023-01-04T04:14:04.954Z,25.70
2023-01-04T04:16:36.443Z,25.80
2023-01-04T04:19:09.078Z,25.90
2023-01-04T04:21:39.968Z,26.00
2023-01-04T04:24:12.034Z,26.10
2023-01-04T04:26:43.747Z,26.30
2023-01-04T04:29:14.630Z,26.40
2023-01-04T04:31:45.445Z,26.50
2023-01-04T04:34:16.521Z,26.60
2023-01-04T04:36:47.465Z,26.70
2023-01-04T04:39:18.479Z,26.80
2023-01-04T04:41:49.407Z,26.90
2023-01-04T04:44:22.004Z,26.90
2023-01-04T04:46:52.933Z,27.00
2023-01-04T04:49:23.901Z,27.00
2023-01-04T04:51:56.036Z,27.10
2023-01-04T04:54:26.805Z,27.10
2023-01-04T04:56:57.738Z,27.20
2023-01-04T04:59:28.894Z,27.20
2023-01-04T05:02:01.052Z,27.30
2023-01-04T05:04:31.991Z,27.40
2023-01-04T05:07:05.074Z,27.50
2023-01-04T05:09:35.591Z,27.50
2023-01-04T05:12:23.886Z,27.50
2023-01-04T05:14:54.586Z,27.50
2023-01-04T05:17:25.998Z,27.60
2023-01-04T05:19:56.990Z,27.70
2023-01-04T05:22:33.416Z,27.70
2023-01-04T05:25:04.285Z,27.90
2023-01-04T05:27:38.281Z,28.00
2023-01-04T05:30:27.522Z,28.00
2023-01-04T05:32:59.289Z,28.10
2023-01-04T05:35:30.581Z,28.20
2023-01-04T05:38:03.925Z,28.30
2023-01-04T05:40:34.748Z,28.30
2023-01-04T05:43:05.517Z,28.40
2023-01-04T05:45:36.760Z,28.40
2023-01-04T05:48:07.884Z,28.50
2023-01-04T05:50:38.891Z,28.50
2023-01-04T05:53:10.122Z,28.50
2023-01-04T05:55:41.118Z,28.60
2023-01-04T05:58:12.365Z,28.60
2023-01-04T06:00:43.163Z,28.60
2023-01-04T06:03:16.296Z,28.60
2023-01-04T06:05:48.297Z,28.70
2023-01-04T06:08:19.180Z,28.70
2023-01-04T06:10:58.000Z,28.60
2023-01-04T06:13:28.920Z,28.60
2023-01-04T06:16:02.968Z,28.60
2023-01-04T06:18:35.448Z,28.70
2023-01-04T06:21:09.409Z,28.80
2023-01-04T06:23:41.135Z,28.80
2023-01-04T06:26:32.477Z,28.90
2023-01-04T06:29:03.180Z,28.90
2023-01-04T06:31:34.749Z,28.90
2023-01-04T06:34:05.625Z,28.80
2023-01-04T06:36:37.019Z,28.90
2023-01-04T06:39:09.243Z,28.90
2023-01-04T06:41:40.115Z,28.80
2023-01-04T06:44:11.020Z,28.80
2023-01-04T06:46:43.611Z,28.80
2023-01-04T06:49:15.429Z,28.80
2023-01-04T06:51:46.104Z,28.90
2023-01-04T06:54:16.916Z,28.90
2023-01-04T06:56:47.687Z,29.00
2023-01-04T06:59:18.690Z,29.10
2023-01-04T07:01:49.499Z,29.10
2023-01-04T07:04:20.436Z,29.10
2023-01-04T07:06:52.734Z,29.10
2023-01-04T07:09:24.414Z,29.10
2023-01-04T07:11:55.543Z,29.10
2023-01-04T07:14:26.301Z,29.10
2023-01-04T07:16:57.073Z,29.10
2023-01-04T07:19:28.617Z,29.10
2023-01-04T07:21:59.935Z,29.20
2023-01-04T07:24:31.062Z,29.10
2023-01-04T07:27:06.086Z,29.10
2023-01-04T07:29:37.068Z,29.20
2023-01-04T07:32:14.003Z,29.20
2023-01-04T07:34:45.593Z,29.20
2023-01-04T07:37:17.700Z,29.20
2023-01-04T07:39:49.680Z,29.20
2023-01-04T07:42:21.450Z,29.20
2023-01-04T07:44:52.283Z,29.20
2023-01-04T07:47:23.230Z,29.20
2023-01-04T07:49:54.486Z,29.20
2023-01-04T07:52:25.472Z,29.20
2023-01-04T07:54:58.107Z,29.20
2023-01-04T07:57:29.645Z,29.20
2023-01-04T08:00:01.775Z,29.20
2023-01-04T08:02:32.988Z,29.20
2023-01-04T08:05:04.999Z,29.10
2023-01-04T08:07:38.628Z,29.10
2023-01-04T08:10:10.598Z,29.10
2023-01-04T08:12:42.959Z,29.10
2023-01-04T08:15:15.461Z,29.20
2023-01-04T08:17:46.259Z,29.10
2023-01-04T08:20:17.235Z,29.10
2023-01-04T08:22:48.206Z,29.10
2023-01-04T08:25:19.526Z,29.00
2023-01-04T08:27:53.125Z,29.00
2023-01-04T08:30:26.011Z,29.00
2023-01-04T08:32:56.229Z,29.00
2023-01-04T08:35:27.505Z,29.00
2023-01-04T08:38:28.432Z,29.00
2023-01-04T08:41:00.084Z,28.90
2023-01-04T08:43:07.964Z,28.90
2023-01-04T08:45:39.135Z,28.90
2023-01-04T08:48:09.964Z,28.90
2023-01-04T08:50:40.790Z,28.90
2023-01-04T08:53:12.253Z,28.90
2023-01-04T08:55:43.010Z,28.90
2023-01-04T08:58:13.920Z,28.90
2023-01-04T09:00:44.796Z,28.80
2023-01-04T09:03:16.197Z,28.70
2023-01-04T09:05:48.679Z,28.70
2023-01-04T09:08:19.349Z,28.60
2023-01-04T09:10:50.665Z,28.60
2023-01-04T09:13:21.384Z,28.50
2023-01-04T09:15:53.561Z,28.50
2023-01-04T09:18:32.682Z,28.40
2023-01-04T09:20:56.615Z,28.40
2023-01-04T09:23:27.769Z,28.30
2023-01-04T09:26:02.124Z,28.20
2023-01-04T09:28:31.453Z,28.20
2023-01-04T09:31:03.444Z,28.10
2023-01-04T09:34:04.068Z,28.10
2023-01-04T09:36:10.525Z,28.00
2023-01-04T09:38:41.533Z,28.00
2023-01-04T09:41:23.504Z,28.00
2023-01-04T09:43:59.027Z,27.90
2023-01-04T09:46:32.884Z,27.90
2023-01-04T09:49:25.446Z,27.90
2023-01-04T09:52:13.391Z,27.90
2023-01-04T09:54:49.425Z,27.80
2023-01-04T09:57:35.190Z,27.80
2023-01-04T10:00:14.120Z,27.70
2023-01-04T10:02:53.380Z,27.80
2023-01-04T10:05:32.111Z,27.70
2023-01-04T10:08:04.519Z,27.80
2023-01-04T10:10:43.578Z,27.70
2023-01-04T10:13:49.900Z,27.70
2023-01-04T10:16:44.605Z,27.60
2023-01-04T10:20:59.551Z,27.60
2023-01-04T10:22:00.253Z,27.60
2023-01-04T10:24:48.693Z,27.60
2023-01-04T10:27:28.168Z,27.50
2023-01-04T10:30:07.281Z,27.50
2023-01-04T10:32:48.451Z,27.50
2023-01-04T10:35:24.445Z,27.40
2023-01-04T10:38:03.554Z,27.40
2023-01-04T10:40:36.861Z,27.40
2023-01-04T10:43:28.267Z,27.40
2023-01-04T10:46:13.463Z,27.40
2023-01-04T10:48:46.889Z,27.30
2023-01-04T10:51:21.950Z,27.30
2023-01-04T10:53:57.516Z,27.30
2023-01-04T10:56:36.774Z,27.20
2023-01-04T10:59:24.847Z,27.20
2023-01-04T11:01:58.288Z,27.10
2023-01-04T11:04:31.911Z,27.10
2023-01-04T11:07:28.016Z,27.10
2023-01-04T11:10:08.153Z,27.00
2023-01-04T11:12:42.716Z,27.00
2023-01-04T11:15:14.131Z,27.00
2023-01-04T11:17:47.349Z,27.00
2023-01-04T11:20:20.763Z,26.90
2023-01-04T11:23:00.709Z,26.90
2023-01-04T11:25:35.440Z,26.90
2023-01-04T11:28:11.034Z,26.90
2023-01-04T11:30:56.866Z,26.80
2023-01-04T11:33:29.115Z,26.80
2023-01-04T11:36:04.646Z,26.80
2023-01-04T11:38:52.888Z,26.70
2023-01-04T11:41:09.482Z,26.70
2023-01-04T11:43:44.115Z,26.70
2023-01-04T11:46:23.148Z,26.60
2023-01-04T11:48:55.255Z,26.60
2023-01-04T11:51:34.981Z,26.60
2023-01-04T11:54:08.520Z,26.50
2023-01-04T11:56:42.900Z,26.60
2023-01-04T11:59:25.206Z,26.50
2023-01-04T12:04:35.709Z,26.50
2023-01-04T12:07:11.642Z,26.40
2023-01-04T12:09:46.272Z,26.50
2023-01-04T12:12:18.786Z,26.40
2023-01-04T12:14:54.484Z,26.40
2023-01-04T12:17:43.111Z,26.40
2023-01-04T12:20:14.649Z,26.40
2023-01-04T12:22:42.353Z,26.40
2023-01-04T12:25:28.076Z,26.30
2023-01-04T12:27:58.973Z,26.30
2023-01-04T12:30:45.803Z,26.30
2023-01-04T12:33:37.015Z,26.30
2023-01-04T12:36:10.994Z,26.30
2023-01-04T12:39:02.363Z,26.30
2023-01-04T12:41:41.763Z,26.30
2023-01-04T12:44:40.218Z,26.20
2023-01-04T12:47:39.705Z,26.20
2023-01-04T12:50:13.129Z,26.20
2023-01-04T12:53:11.182Z,26.20
2023-01-04T12:55:32.157Z,26.20
2023-01-04T12:58:07.408Z,26.20
2023-01-04T13:00:55.997Z,26.20
2023-01-04T13:03:29.377Z,26.10
2023-01-04T13:06:05.620Z,26.10
2023-01-04T13:08:45.533Z,26.10
2023-01-04T13:11:33.863Z,26.00
2023-01-04T13:14:09.989Z,26.00
2023-01-04T13:16:55.183Z,26.00
2023-01-04T13:19:27.672Z,26.00
2023-01-04T13:21:59.529Z,26.00
2023-01-04T13:24:33.108Z,26.00
2023-01-04T13:27:08.151Z,26.00
2023-01-04T13:29:41.209Z,25.90
2023-01-04T13:32:14.674Z,25.90
2023-01-04T13:35:06.823Z,25.90
2023-01-04T13:37:43.235Z,25.90
2023-01-04T13:40:35.835Z,25.80
2023-01-04T13:43:25.448Z,25.80
2023-01-04T13:46:14.844Z,25.80
2023-01-04T13:51:39.810Z,25.70
2023-01-04T13:57:23.269Z,25.60
2023-01-04T13:59:54.526Z,25.60
2023-01-04T14:02:25.694Z,25.60
2023-01-04T14:05:05.432Z,25.50
2023-01-04T14:08:02.686Z,25.50
2023-01-04T14:10:41.823Z,25.40
2023-01-04T14:13:15.587Z,25.40
2023-01-04T14:15:49.080Z,25.40
2023-01-04T14:18:36.856Z,25.40
2023-01-04T14:21:23.667Z,25.40
2023-01-04T14:23:55.762Z,25.30
2023-01-04T14:26:37.166Z,25.30
2023-01-04T14:29:32.523Z,25.30
2023-01-04T14:32:09.185Z,25.30
2023-01-04T14:34:49.625Z,25.30
2023-01-04T14:37:20.435Z,25.20
2023-01-04T14:39:51.516Z,25.20
2023-01-04T14:42:30.297Z,25.20
2023-01-04T14:45:01.216Z,25.20
2023-01-04T14:47:32.163Z,25.10
2023-01-04T14:50:02.974Z,25.10
2023-01-04T14:52:35.384Z,25.10
2023-01-04T14:55:06.878Z,25.10
2023-01-04T14:57:39.003Z,25.10
2023-01-04T15:00:16.884Z,25.10
2023-01-04T15:02:44.049Z,25.00
2023-01-04T15:05:15.262Z,25.00
2023-01-04T15:07:46.047Z,24.90
2023-01-04T15:10:25.117Z,24.90
2023-01-04T15:12:56.094Z,24.90
2023-01-04T15:15:26.790Z,24.80
2023-01-04T15:17:57.497Z,24.80
2023-01-04T15:20:28.620Z,24.80
2023-01-04T15:22:59.466Z,24.80
2023-01-04T15:25:30.856Z,24.80
2023-01-04T15:28:01.761Z,24.70
2023-01-04T15:30:33.874Z,24.70
2023-01-04T15:33:04.591Z,24.60
2023-01-04T15:35:42.528Z,24.60
2023-01-04T15:38:18.270Z,24.60
2023-01-04T15:40:46.986Z,24.60
2023-01-04T15:43:17.707Z,24.50
2023-01-04T15:45:49.530Z,24.50
2023-01-04T15:48:20.424Z,24.50
2023-01-04T15:50:51.213Z,24.50
2023-01-04T15:53:21.983Z,24.50
2023-01-04T15:55:54.160Z,24.40
2023-01-04T15:58:24.858Z,24.40
2023-01-04T16:01:02.621Z,24.40
2023-01-04T16:03:27.721Z,24.40
2023-01-04T16:05:58.405Z,24.30
2023-01-04T16:08:29.071Z,24.40
2023-01-04T16:10:59.763Z,24.40
2023-01-04T16:13:33.490Z,24.30
2023-01-04T16:16:04.661Z,24.30
2023-01-04T16:18:35.750Z,24.30
2023-01-04T16:21:14.627Z,24.30
2023-01-04T16:23:51.166Z,24.20
2023-01-04T16:26:21.637Z,24.20
2023-01-04T16:28:56.428Z,24.20
2023-01-04T16:31:27.296Z,24.10
2023-01-04T16:33:58.207Z,24.10
2023-01-04T16:36:30.361Z,24.10
2023-01-04T16:39:01.006Z,24.10
2023-01-04T16:41:31.683Z,24.10
2023-01-04T16:44:03.282Z,24.00
2023-01-04T16:46:38.840Z,24.00
2023-01-04T16:49:18.979Z,24.00
2023-01-04T16:51:51.924Z,24.00
2023-01-04T16:54:22.728Z,24.00
2023-01-04T16:56:55.292Z,24.00
2023-01-04T16:59:26.070Z,23.90
2023-01-04T17:01:58.326Z,23.90
2023-01-04T17:04:28.933Z,23.90
2023-01-04T17:06:59.667Z,23.90
2023-01-04T17:09:30.363Z,23.80
2023-01-04T17:14:34.805Z,23.80
2023-01-04T17:17:05.577Z,23.80
2023-01-04T17:19:37.867Z,23.70
2023-01-04T17:22:08.623Z,23.70
2023-01-04T17:24:40.413Z,23.70
2023-01-04T17:27:12.519Z,23.70
2023-01-04T17:29:43.335Z,23.70
2023-01-04T17:32:14.625Z,23.60
2023-01-04T17:34:45.349Z,23.60
2023-01-04T17:37:16.165Z,23.60
2023-01-04T17:39:47.197Z,23.50
2023-01-04T17:42:18.066Z,23.50
2023-01-04T17:44:52.418Z,23.40
2023-01-04T17:47:23.196Z,23.40
2023-01-04T17:49:54.042Z,23.40
2023-01-04T17:52:31.017Z,23.30
2023-01-04T17:54:57.985Z,23.30
2023-01-04T17:57:30.358Z,23.30
2023-01-04T18:00:01.166Z,23.30
2023-01-04T18:02:34.135Z,23.20
2023-01-04T18:05:06.655Z,23.20
2023-01-04T18:07:38.953Z,23.20
2023-01-04T18:10:20.571Z,23.20
2023-01-04T18:12:43.868Z,23.20
2023-01-04T18:15:14.874Z,23.20
2023-01-04T18:17:45.642Z,23.10
2023-01-04T18:20:24.653Z,23.10
2023-01-04T18:22:48.508Z,23.10
2023-01-04T18:25:20.809Z,23.10
2023-01-04T18:27:52.794Z,23.10
2023-01-04T18:30:23.692Z,23.00
2023-01-04T18:32:54.577Z,23.00
2023-01-04T18:35:25.283Z,23.00
2023-01-04T18:37:55.953Z,23.00
2023-01-04T18:40:26.726Z,23.00
2023-01-04T18:43:00.320Z,22.90
2023-01-04T18:45:31.312Z,23.00
2023-01-04T18:48:02.776Z,22.90
2023-01-04T18:50:34.840Z,22.90
2023-01-04T18:53:05.626Z,22.90
2023-01-04T18:55:36.286Z,22.80
2023-01-04T18:58:07.806Z,22.80
2023-01-04T19:00:38.681Z,22.80
2023-01-04T19:03:13.347Z,22.80
2023-01-04T19:05:44.370Z,22.70
2023-01-04T19:08:15.043Z,22.70
2023-01-04T19:10:45.869Z,22.70
2023-01-04T19:13:16.560Z,22.70
2023-01-04T19:15:47.894Z,22.60
2023-01-04T19:18:20.135Z,22.60
2023-01-04T19:20:50.841Z,22.60
2023-01-04T19:23:21.950Z,22.60
2023-01-04T19:25:52.945Z,22.60
2023-01-04T19:28:24.342Z,22.60
2023-01-04T19:30:55.172Z,22.50
2023-01-04T19:33:26.031Z,22.50
2023-01-04T19:35:57.013Z,22.50
2023-01-04T19:38:27.915Z,22.40
2023-01-04T19:41:00.669Z,22.50
2023-01-04T19:43:31.370Z,22.50
2023-01-04T19:46:02.720Z,22.50
2023-01-04T19:48:34.383Z,22.50
2023-01-04T19:51:10.617Z,22.50
2023-01-04T19:53:42.090Z,22.40
2023-01-04T19:56:14.604Z,22.40
2023-01-04T19:58:45.777Z,22.40
2023-01-04T20:01:19.433Z,22.40
2023-01-04T20:03:51.050Z,22.50
2023-01-04T20:06:22.064Z,22.40
2023-01-04T20:08:52.979Z,22.40
2023-01-04T20:11:23.754Z,22.30
2023-01-04T20:13:54.701Z,22.30
2023-01-04T20:16:25.534Z,22.30
2023-01-04T20:19:00.381Z,22.30
2023-01-04T20:21:31.737Z,22.30
2023-01-04T20:24:03.494Z,22.20
2023-01-04T20:26:34.380Z,22.20
2023-01-04T20:29:05.547Z,22.20
2023-01-04T20:31:40.876Z,22.20
2023-01-04T20:34:10.213Z,22.20
2023-01-04T20:36:41.413Z,22.10
2023-01-04T20:39:12.097Z,22.10
2023-01-04T20:41:44.251Z,22.10
2023-01-04T20:44:15.100Z,22.10
2023-01-04T20:46:48.317Z,22.10
2023-01-04T20:49:18.023Z,22.10
2023-01-04T20:51:48.937Z,22.10
2023-01-04T20:54:19.631Z,22.10
2023-01-04T20:56:50.413Z,22.10
2023-01-04T20:59:21.125Z,22.10
2023-01-04T21:01:52.135Z,22.10
2023-01-04T21:04:23.058Z,22.00
2023-01-04T21:06:53.860Z,22.00
2023-01-04T21:09:24.688Z,22.00
2023-01-04T21:11:56.029Z,22.00
2023-01-04T21:14:27.767Z,22.00
2023-01-04T21:16:58.558Z,22.00
2023-01-04T21:19:29.276Z,22.00
2023-01-04T21:22:00.051Z,22.00
2023-01-04T21:24:31.147Z,22.00
2023-01-04T21:27:02.168Z,22.00
2023-01-04T21:29:33.167Z,22.00
2023-01-04T21:32:03.824Z,22.00
2023-01-04T21:34:34.898Z,22.00
2023-01-04T21:37:05.690Z,22.00
2023-01-04T21:39:37.862Z,22.00
2023-01-04T21:42:08.678Z,21.90
2023-01-04T21:44:39.387Z,21.90
2023-01-04T21:47:10.161Z,21.90
2023-01-04T21:49:42.589Z,21.90
2023-01-04T21:52:14.031Z,21.90
2023-01-04T21:54:44.740Z,21.90
2023-01-04T21:57:15.395Z,21.90
2023-01-04T21:59:46.180Z,21.80
2023-01-04T22:02:21.459Z,21.80
2023-01-04T22:04:52.160Z,21.80
2023-01-04T22:07:22.842Z,21.80
2023-01-04T22:09:57.378Z,21.80
2023-01-04T22:12:26.039Z,21.80
2023-01-04T22:14:56.716Z,21.70
2023-01-04T22:17:27.430Z,21.80
2023-01-04T22:19:58.101Z,21.70
2023-01-04T22:22:30.103Z,21.80
2023-01-04T22:25:00.937Z,21.70
2023-01-04T22:27:31.783Z,21.70
2023-01-04T22:30:02.498Z,21.70
2023-01-04T22:32:33.278Z,21.70
2023-01-04T22:35:04.192Z,21.70
2023-01-04T22:37:35.002Z,21.70
2023-01-04T22:40:05.885Z,21.70
2023-01-04T22:42:36.592Z,21.70
2023-01-04T22:45:13.020Z,21.70
2023-01-04T22:47:40.213Z,21.70
2023-01-04T22:50:11.582Z,21.70
2023-01-04T22:52:45.937Z,21.60
2023-01-04T22:55:14.369Z,21.60
2023-01-04T22:57:46.761Z,21.60
2023-01-04T23:00:18.717Z,21.60
2023-01-04T23:02:49.616Z,21.60
2023-01-04T23:05:20.605Z,21.60
2023-01-04T23:07:51.272Z,21.60
2023-01-04T23:10:22.119Z,21.60
2023-01-04T23:12:52.989Z,21.60
2023-01-04T23:15:23.836Z,21.50
2023-01-04T23:17:54.560Z,21.50
2023-01-04T23:20:25.467Z,21.50
2023-01-04T23:22:56.203Z,21.50
2023-01-04T23:25:27.393Z,21.40
2023-01-04T23:27:58.081Z,21.40
2023-01-04T23:30:28.789Z,21.30
2023-01-04T23:33:07.355Z,21.30
2023-01-04T23:35:41.565Z,21.30
2023-01-04T23:38:12.486Z,21.30
2023-01-04T23:40:44.636Z,21.30
2023-01-04T23:43:15.319Z,21.30
2023-01-04T23:45:46.329Z,21.30
2023-01-04T23:48:17.503Z,21.30
2023-01-04T23:50:49.480Z,21.30
2023-01-04T23:53:20.192Z,21.40
2023-01-04T23:56:02.303Z,21.40
2023-01-04T23:58:33.189Z,21.40
